sensor_id;sensor_type;location;lat;lon;timestamp;P1;durP1;ratioP1;P2;durP2;ratioP2
40489;SDS011;26196;52.302;10.572;2023-07-24T00:02:27;0.80;;;0.60;;
40489;SDS011;26196;52.302;10.572;2023-07-24T00:06:28;0.85;;;0.60;;
40489;SDS011;26196;52.302;10.572;2023-07-24T00:10:28;0.45;;;0.43;;
40489;SDS011;26196;52.302;10.572;2023-07-24T00:14:28;1.10;;;0.80;;
40489;SDS011;26196;52.302;10.572;2023-07-24T00:18:29;0.90;;;0.70;;
40489;SDS011;26196;52.302;10.572;2023-07-24T00:22:29;1.00;;;0.50;;
40489;SDS011;26196;52.302;10.572;2023-07-24T00:26:29;1.92;;;0.80;;
40489;SDS011;26196;52.302;10.572;2023-07-24T00:30:30;1.77;;;0.70;;
40489;SDS011;26196;52.302;10.572;2023-07-24T00:34:30;1.10;;;0.70;;
40489;SDS011;26196;52.302;10.572;2023-07-24T00:38:30;0.93;;;0.60;;
40489;SDS011;26196;52.302;10.572;2023-07-24T00:42:31;2.33;;;0.63;;
40489;SDS011;26196;52.302;10.572;2023-07-24T00:46:31;0.90;;;0.57;;
40489;SDS011;26196;52.302;10.572;2023-07-24T00:50:33;3.80;;;1.00;;
40489;SDS011;26196;52.302;10.572;2023-07-24T00:54:36;1.20;;;0.70;;
40489;SDS011;26196;52.302;10.572;2023-07-24T00:58:37;1.63;;;0.70;;
40489;SDS011;26196;52.302;10.572;2023-07-24T01:02:37;1.92;;;0.70;;
40489;SDS011;26196;52.302;10.572;2023-07-24T01:06:38;1.58;;;0.70;;
40489;SDS011;26196;52.302;10.572;2023-07-24T01:10:40;1.45;;;0.90;;
40489;SDS011;26196;52.302;10.572;2023-07-24T01:14:47;1.88;;;0.60;;
40489;SDS011;26196;52.302;10.572;2023-07-24T01:18:52;1.40;;;0.65;;
40489;SDS011;26196;52.302;10.572;2023-07-24T01:27:34;0.73;;;0.50;;
40489;SDS011;26196;52.302;10.572;2023-07-24T01:31:35;1.20;;;0.70;;
40489;SDS011;26196;52.302;10.572;2023-07-24T01:35:35;2.33;;;1.00;;
40489;SDS011;26196;52.302;10.572;2023-07-24T01:39:38;1.85;;;0.63;;
40489;SDS011;26196;52.302;10.572;2023-07-24T01:43:40;1.92;;;0.88;;
40489;SDS011;26196;52.302;10.572;2023-07-24T01:47:41;1.92;;;0.80;;
40489;SDS011;26196;52.302;10.572;2023-07-24T01:51:41;1.67;;;0.60;;
40489;SDS011;26196;52.302;10.572;2023-07-24T01:55:41;1.90;;;0.70;;
40489;SDS011;26196;52.302;10.572;2023-07-24T01:59:42;1.17;;;1.07;;
40489;SDS011;26196;52.302;10.572;2023-07-24T02:03:43;2.13;;;0.77;;
40489;SDS011;26196;52.302;10.572;2023-07-24T02:07:44;1.97;;;0.70;;
40489;SDS011;26196;52.302;10.572;2023-07-24T02:11:44;0.83;;;0.60;;
40489;SDS011;26196;52.302;10.572;2023-07-24T02:15:45;0.98;;;0.50;;
40489;SDS011;26196;52.302;10.572;2023-07-24T02:19:45;1.30;;;0.70;;
40489;SDS011;26196;52.302;10.572;2023-07-24T02:23:46;1.20;;;0.55;;
40489;SDS011;26196;52.302;10.572;2023-07-24T02:27:46;1.10;;;0.57;;
40489;SDS011;26196;52.302;10.572;2023-07-24T02:31:46;1.10;;;0.70;;
40489;SDS011;26196;52.302;10.572;2023-07-24T02:35:47;2.83;;;0.70;;
40489;SDS011;26196;52.302;10.572;2023-07-24T02:39:47;0.47;;;0.47;;
40489;SDS011;26196;52.302;10.572;2023-07-24T02:43:47;0.73;;;0.67;;
40489;SDS011;26196;52.302;10.572;2023-07-24T02:47:48;1.90;;;0.63;;
40489;SDS011;26196;52.302;10.572;2023-07-24T02:51:48;0.57;;;0.52;;
40489;SDS011;26196;52.302;10.572;2023-07-24T02:55:50;0.55;;;0.50;;
40489;SDS011;26196;52.302;10.572;2023-07-24T02:59:50;0.90;;;0.63;;
40489;SDS011;26196;52.302;10.572;2023-07-24T03:03:50;1.30;;;0.53;;
40489;SDS011;26196;52.302;10.572;2023-07-24T03:07:51;3.53;;;0.73;;
40489;SDS011;26196;52.302;10.572;2023-07-24T03:11:51;1.38;;;0.57;;
40489;SDS011;26196;52.302;10.572;2023-07-24T03:15:52;1.40;;;0.70;;
40489;SDS011;26196;52.302;10.572;2023-07-24T03:19:54;2.30;;;0.70;;
40489;SDS011;26196;52.302;10.572;2023-07-24T03:23:54;1.60;;;0.70;;
40489;SDS011;26196;52.302;10.572;2023-07-24T03:27:54;0.60;;;0.50;;
40489;SDS011;26196;52.302;10.572;2023-07-24T03:31:55;1.23;;;0.90;;
40489;SDS011;26196;52.302;10.572;2023-07-24T03:35:55;1.55;;;0.40;;
40489;SDS011;26196;52.302;10.572;2023-07-24T03:39:55;1.30;;;0.68;;
40489;SDS011;26196;52.302;10.572;2023-07-24T03:43:56;1.40;;;0.60;;
40489;SDS011;26196;52.302;10.572;2023-07-24T03:47:56;1.83;;;0.50;;
40489;SDS011;26196;52.302;10.572;2023-07-24T03:51:56;0.97;;;0.50;;
40489;SDS011;26196;52.302;10.572;2023-07-24T03:55:57;1.10;;;0.73;;
40489;SDS011;26196;52.302;10.572;2023-07-24T03:59:57;0.63;;;0.52;;
40489;SDS011;26196;52.302;10.572;2023-07-24T04:03:58;1.20;;;1.10;;
40489;SDS011;26196;52.302;10.572;2023-07-24T04:07:59;1.00;;;0.55;;
40489;SDS011;26196;52.302;10.572;2023-07-24T04:12:00;0.85;;;0.60;;
40489;SDS011;26196;52.302;10.572;2023-07-24T04:16:00;0.95;;;0.63;;
40489;SDS011;26196;52.302;10.572;2023-07-24T04:20:01;1.23;;;0.77;;
40489;SDS011;26196;52.302;10.572;2023-07-24T04:24:01;1.13;;;0.77;;
40489;SDS011;26196;52.302;10.572;2023-07-24T04:28:02;1.80;;;1.02;;
40489;SDS011;26196;52.302;10.572;2023-07-24T04:32:02;2.00;;;0.70;;
40489;SDS011;26196;52.302;10.572;2023-07-24T04:36:03;1.60;;;0.80;;
40489;SDS011;26196;52.302;10.572;2023-07-24T04:40:04;2.85;;;0.80;;
40489;SDS011;26196;52.302;10.572;2023-07-24T04:44:05;2.15;;;1.00;;
40489;SDS011;26196;52.302;10.572;2023-07-24T04:48:05;1.00;;;0.88;;
40489;SDS011;26196;52.302;10.572;2023-07-24T04:52:05;2.35;;;1.23;;
40489;SDS011;26196;52.302;10.572;2023-07-24T04:56:06;1.37;;;0.97;;
40489;SDS011;26196;52.302;10.572;2023-07-24T05:00:07;1.45;;;0.98;;
40489;SDS011;26196;52.302;10.572;2023-07-24T05:04:08;3.03;;;1.20;;
40489;SDS011;26196;52.302;10.572;2023-07-24T05:08:08;3.03;;;1.23;;
40489;SDS011;26196;52.302;10.572;2023-07-24T05:12:08;3.22;;;1.38;;
40489;SDS011;26196;52.302;10.572;2023-07-24T05:16:09;7.18;;;1.55;;
40489;SDS011;26196;52.302;10.572;2023-07-24T05:20:09;5.93;;;1.53;;
40489;SDS011;26196;52.302;10.572;2023-07-24T05:24:10;4.28;;;1.35;;
40489;SDS011;26196;52.302;10.572;2023-07-24T05:28:10;2.70;;;1.13;;
40489;SDS011;26196;52.302;10.572;2023-07-24T05:32:11;6.20;;;1.67;;
40489;SDS011;26196;52.302;10.572;2023-07-24T05:36:11;8.05;;;2.60;;
40489;SDS011;26196;52.302;10.572;2023-07-24T05:40:11;3.95;;;1.40;;
40489;SDS011;26196;52.302;10.572;2023-07-24T05:44:12;6.75;;;2.00;;
40489;SDS011;26196;52.302;10.572;2023-07-24T05:48:12;2.40;;;1.00;;
40489;SDS011;26196;52.302;10.572;2023-07-24T05:52:13;4.00;;;1.83;;
40489;SDS011;26196;52.302;10.572;2023-07-24T05:56:13;3.55;;;1.13;;
40489;SDS011;26196;52.302;10.572;2023-07-24T06:00:13;1.60;;;0.83;;
40489;SDS011;26196;52.302;10.572;2023-07-24T06:04:14;3.28;;;1.20;;
40489;SDS011;26196;52.302;10.572;2023-07-24T06:08:14;2.70;;;1.57;;
40489;SDS011;26196;52.302;10.572;2023-07-24T06:12:14;3.03;;;1.23;;
40489;SDS011;26196;52.302;10.572;2023-07-24T06:16:15;5.63;;;1.77;;
40489;SDS011;26196;52.302;10.572;2023-07-24T06:20:15;2.65;;;1.05;;
40489;SDS011;26196;52.302;10.572;2023-07-24T06:24:15;1.97;;;0.87;;
40489;SDS011;26196;52.302;10.572;2023-07-24T06:28:16;1.77;;;1.10;;
40489;SDS011;26196;52.302;10.572;2023-07-24T06:32:16;2.53;;;1.35;;
40489;SDS011;26196;52.302;10.572;2023-07-24T06:36:16;2.27;;;1.20;;
40489;SDS011;26196;52.302;10.572;2023-07-24T06:40:17;5.25;;;2.30;;
40489;SDS011;26196;52.302;10.572;2023-07-24T06:44:17;4.90;;;2.03;;
40489;SDS011;26196;52.302;10.572;2023-07-24T06:48:18;5.75;;;2.40;;
40489;SDS011;26196;52.302;10.572;2023-07-24T06:52:18;3.85;;;1.75;;
40489;SDS011;26196;52.302;10.572;2023-07-24T06:56:19;4.40;;;2.03;;
40489;SDS011;26196;52.302;10.572;2023-07-24T07:00:19;3.10;;;1.65;;
40489;SDS011;26196;52.302;10.572;2023-07-24T07:04:19;7.68;;;2.30;;
40489;SDS011;26196;52.302;10.572;2023-07-24T07:08:20;4.63;;;1.80;;
40489;SDS011;26196;52.302;10.572;2023-07-24T07:12:20;3.43;;;1.20;;
40489;SDS011;26196;52.302;10.572;2023-07-24T07:16:20;3.73;;;1.53;;
40489;SDS011;26196;52.302;10.572;2023-07-24T07:20:21;6.82;;;2.38;;
40489;SDS011;26196;52.302;10.572;2023-07-24T07:24:21;7.70;;;2.50;;
40489;SDS011;26196;52.302;10.572;2023-07-24T07:28:21;7.07;;;2.78;;
40489;SDS011;26196;52.302;10.572;2023-07-24T07:32:22;5.17;;;2.10;;
40489;SDS011;26196;52.302;10.572;2023-07-24T07:36:22;7.35;;;2.17;;
40489;SDS011;26196;52.302;10.572;2023-07-24T07:40:23;6.60;;;2.30;;
40489;SDS011;26196;52.302;10.572;2023-07-24T07:44:23;6.75;;;2.17;;
40489;SDS011;26196;52.302;10.572;2023-07-24T07:48:23;7.88;;;2.47;;
40489;SDS011;26196;52.302;10.572;2023-07-24T07:52:24;9.33;;;3.07;;
40489;SDS011;26196;52.302;10.572;2023-07-24T07:56:24;9.07;;;1.83;;
40489;SDS011;26196;52.302;10.572;2023-07-24T08:00:24;7.63;;;2.57;;
40489;SDS011;26196;52.302;10.572;2023-07-24T08:04:25;8.73;;;2.53;;
40489;SDS011;26196;52.302;10.572;2023-07-24T08:08:25;10.32;;;3.50;;
40489;SDS011;26196;52.302;10.572;2023-07-24T08:12:26;15.27;;;2.75;;
40489;SDS011;26196;52.302;10.572;2023-07-24T08:16:26;7.33;;;2.73;;
40489;SDS011;26196;52.302;10.572;2023-07-24T08:20:27;4.82;;;2.78;;
40489;SDS011;26196;52.302;10.572;2023-07-24T08:24:27;7.63;;;2.67;;
40489;SDS011;26196;52.302;10.572;2023-07-24T08:28:27;5.37;;;1.83;;
40489;SDS011;26196;52.302;10.572;2023-07-24T08:32:27;5.30;;;2.30;;
40489;SDS011;26196;52.302;10.572;2023-07-24T08:36:28;6.25;;;2.55;;
40489;SDS011;26196;52.302;10.572;2023-07-24T08:40:29;5.97;;;2.55;;
40489;SDS011;26196;52.302;10.572;2023-07-24T08:44:29;4.17;;;2.03;;
40489;SDS011;26196;52.302;10.572;2023-07-24T08:48:32;3.85;;;2.83;;
40489;SDS011;26196;52.302;10.572;2023-07-24T08:52:38;4.72;;;2.53;;
40489;SDS011;26196;52.302;10.572;2023-07-24T08:56:39;5.32;;;2.50;;
40489;SDS011;26196;52.302;10.572;2023-07-24T09:00:40;3.08;;;2.17;;
40489;SDS011;26196;52.302;10.572;2023-07-24T09:04:41;6.50;;;2.38;;
40489;SDS011;26196;52.302;10.572;2023-07-24T09:08:41;5.65;;;2.53;;
40489;SDS011;26196;52.302;10.572;2023-07-24T09:12:43;5.45;;;3.30;;
40489;SDS011;26196;52.302;10.572;2023-07-24T09:16:44;4.95;;;2.35;;
40489;SDS011;26196;52.302;10.572;2023-07-24T09:20:44;4.60;;;2.37;;
40489;SDS011;26196;52.302;10.572;2023-07-24T09:24:51;3.55;;;2.20;;
40489;SDS011;26196;52.302;10.572;2023-07-24T09:28:53;6.75;;;2.33;;
40489;SDS011;26196;52.302;10.572;2023-07-24T09:32:54;4.03;;;1.90;;
40489;SDS011;26196;52.302;10.572;2023-07-24T09:36:54;2.83;;;1.70;;
40489;SDS011;26196;52.302;10.572;2023-07-24T09:40:56;2.03;;;1.67;;
40489;SDS011;26196;52.302;10.572;2023-07-24T09:44:56;3.58;;;1.85;;
40489;SDS011;26196;52.302;10.572;2023-07-24T09:48:57;4.28;;;2.20;;
40489;SDS011;26196;52.302;10.572;2023-07-24T09:52:58;2.97;;;1.85;;
40489;SDS011;26196;52.302;10.572;2023-07-24T09:56:59;3.10;;;1.80;;
40489;SDS011;26196;52.302;10.572;2023-07-24T10:01:01;3.60;;;1.67;;
40489;SDS011;26196;52.302;10.572;2023-07-24T10:05:04;5.97;;;1.73;;
40489;SDS011;26196;52.302;10.572;2023-07-24T10:09:05;2.42;;;1.52;;
40489;SDS011;26196;52.302;10.572;2023-07-24T10:13:06;2.30;;;1.63;;
40489;SDS011;26196;52.302;10.572;2023-07-24T10:17:10;4.65;;;2.33;;
40489;SDS011;26196;52.302;10.572;2023-07-24T10:21:11;2.67;;;1.85;;
40489;SDS011;26196;52.302;10.572;2023-07-24T10:25:12;1.92;;;1.58;;
40489;SDS011;26196;52.302;10.572;2023-07-24T10:29:13;2.10;;;1.55;;
40489;SDS011;26196;52.302;10.572;2023-07-24T10:33:17;2.38;;;1.85;;
40489;SDS011;26196;52.302;10.572;2023-07-24T10:37:19;3.53;;;1.50;;
40489;SDS011;26196;52.302;10.572;2023-07-24T10:41:20;4.07;;;2.17;;
40489;SDS011;26196;52.302;10.572;2023-07-24T10:45:20;3.85;;;2.30;;
40489;SDS011;26196;52.302;10.572;2023-07-24T10:49:21;1.80;;;1.40;;
40489;SDS011;26196;52.302;10.572;2023-07-24T10:53:22;1.70;;;1.30;;
40489;SDS011;26196;52.302;10.572;2023-07-24T10:57:26;2.95;;;1.92;;
40489;SDS011;26196;52.302;10.572;2023-07-24T11:01:27;3.17;;;1.60;;
40489;SDS011;26196;52.302;10.572;2023-07-24T11:05:27;3.97;;;1.63;;
40489;SDS011;26196;52.302;10.572;2023-07-24T11:09:37;3.80;;;1.57;;
40489;SDS011;26196;52.302;10.572;2023-07-24T11:13:40;2.65;;;1.75;;
40489;SDS011;26196;52.302;10.572;2023-07-24T11:17:41;3.17;;;1.43;;
40489;SDS011;26196;52.302;10.572;2023-07-24T11:21:42;2.08;;;1.23;;
40489;SDS011;26196;52.302;10.572;2023-07-24T11:25:43;1.52;;;1.13;;
40489;SDS011;26196;52.302;10.572;2023-07-24T11:29:47;4.70;;;1.75;;
40489;SDS011;26196;52.302;10.572;2023-07-24T11:33:49;1.77;;;1.20;;
40489;SDS011;26196;52.302;10.572;2023-07-24T11:37:51;2.83;;;1.35;;
40489;SDS011;26196;52.302;10.572;2023-07-24T11:41:51;2.22;;;1.27;;
40489;SDS011;26196;52.302;10.572;2023-07-24T11:45:52;4.18;;;1.52;;
40489;SDS011;26196;52.302;10.572;2023-07-24T11:49:57;2.67;;;1.70;;
40489;SDS011;26196;52.302;10.572;2023-07-24T11:54:05;2.55;;;1.75;;
40489;SDS011;26196;52.302;10.572;2023-07-24T11:58:13;2.75;;;1.55;;
40489;SDS011;26196;52.302;10.572;2023-07-24T12:02:16;2.35;;;1.38;;
40489;SDS011;26196;52.302;10.572;2023-07-24T12:06:16;2.28;;;1.33;;
40489;SDS011;26196;52.302;10.572;2023-07-24T12:10:27;7.22;;;2.60;;
40489;SDS011;26196;52.302;10.572;2023-07-24T12:14:29;5.60;;;2.30;;
40489;SDS011;26196;52.302;10.572;2023-07-24T12:18:29;3.63;;;1.52;;
40489;SDS011;26196;52.302;10.572;2023-07-24T12:22:30;4.32;;;2.28;;
40489;SDS011;26196;52.302;10.572;2023-07-24T12:26:31;3.08;;;2.10;;
40489;SDS011;26196;52.302;10.572;2023-07-24T12:30:31;4.30;;;2.17;;
40489;SDS011;26196;52.302;10.572;2023-07-24T12:34:31;5.30;;;2.43;;
40489;SDS011;26196;52.302;10.572;2023-07-24T12:38:32;3.35;;;2.28;;
40489;SDS011;26196;52.302;10.572;2023-07-24T12:42:32;6.65;;;2.22;;
40489;SDS011;26196;52.302;10.572;2023-07-24T12:46:32;3.17;;;2.63;;
40489;SDS011;26196;52.302;10.572;2023-07-24T12:50:33;3.33;;;2.10;;
40489;SDS011;26196;52.302;10.572;2023-07-24T12:54:34;3.85;;;2.35;;
40489;SDS011;26196;52.302;10.572;2023-07-24T12:58:35;3.88;;;2.80;;
40489;SDS011;26196;52.302;10.572;2023-07-24T13:02:35;5.07;;;2.42;;
40489;SDS011;26196;52.302;10.572;2023-07-24T13:06:35;4.50;;;2.35;;
40489;SDS011;26196;52.302;10.572;2023-07-24T13:10:36;5.07;;;2.55;;
40489;SDS011;26196;52.302;10.572;2023-07-24T13:14:36;5.00;;;3.28;;
40489;SDS011;26196;52.302;10.572;2023-07-24T13:18:37;3.55;;;2.50;;
40489;SDS011;26196;52.302;10.572;2023-07-24T13:22:37;2.95;;;2.25;;
40489;SDS011;26196;52.302;10.572;2023-07-24T13:26:37;3.15;;;2.38;;
40489;SDS011;26196;52.302;10.572;2023-07-24T13:30:38;2.72;;;2.17;;
40489;SDS011;26196;52.302;10.572;2023-07-24T13:34:38;3.30;;;2.23;;
40489;SDS011;26196;52.302;10.572;2023-07-24T13:38:39;4.13;;;2.85;;
40489;SDS011;26196;52.302;10.572;2023-07-24T13:42:40;2.08;;;1.88;;
40489;SDS011;26196;52.302;10.572;2023-07-24T13:46:40;3.83;;;2.45;;
40489;SDS011;26196;52.302;10.572;2023-07-24T13:50:41;3.27;;;3.00;;
40489;SDS011;26196;52.302;10.572;2023-07-24T13:54:41;5.82;;;3.53;;
40489;SDS011;26196;52.302;10.572;2023-07-24T13:58:41;4.23;;;3.23;;
40489;SDS011;26196;52.302;10.572;2023-07-24T14:02:42;5.27;;;3.83;;
40489;SDS011;26196;52.302;10.572;2023-07-24T14:06:42;4.43;;;3.40;;
40489;SDS011;26196;52.302;10.572;2023-07-24T14:10:42;5.07;;;2.97;;
40489;SDS011;26196;52.302;10.572;2023-07-24T14:14:43;3.73;;;2.83;;
40489;SDS011;26196;52.302;10.572;2023-07-24T14:18:43;3.63;;;3.00;;
40489;SDS011;26196;52.302;10.572;2023-07-24T14:22:43;2.70;;;2.50;;
40489;SDS011;26196;52.302;10.572;2023-07-24T14:26:44;3.30;;;1.93;;
40489;SDS011;26196;52.302;10.572;2023-07-24T14:30:44;3.25;;;2.35;;
40489;SDS011;26196;52.302;10.572;2023-07-24T14:34:50;3.65;;;2.50;;
40489;SDS011;26196;52.302;10.572;2023-07-24T14:42:51;4.70;;;2.10;;
40489;SDS011;26196;52.302;10.572;2023-07-24T14:46:51;11.43;;;2.53;;
40489;SDS011;26196;52.302;10.572;2023-07-24T14:50:52;6.73;;;2.67;;
40489;SDS011;26196;52.302;10.572;2023-07-24T14:54:52;3.55;;;2.65;;
40489;SDS011;26196;52.302;10.572;2023-07-24T14:58:53;5.07;;;2.50;;
40489;SDS011;26196;52.302;10.572;2023-07-24T15:02:53;6.97;;;4.15;;
40489;SDS011;26196;52.302;10.572;2023-07-24T15:06:54;5.10;;;3.20;;
40489;SDS011;26196;52.302;10.572;2023-07-24T15:10:54;6.10;;;2.57;;
40489;SDS011;26196;52.302;10.572;2023-07-24T15:14:54;6.73;;;1.43;;
40489;SDS011;26196;52.302;10.572;2023-07-24T15:18:55;3.70;;;1.42;;
40489;SDS011;26196;52.302;10.572;2023-07-24T15:22:55;4.65;;;1.10;;
40489;SDS011;26196;52.302;10.572;2023-07-24T15:26:56;10.93;;;1.43;;
40489;SDS011;26196;52.302;10.572;2023-07-24T15:30:56;3.45;;;1.25;;
40489;SDS011;26196;52.302;10.572;2023-07-24T15:34:56;3.13;;;1.77;;
40489;SDS011;26196;52.302;10.572;2023-07-24T15:38:57;2.30;;;1.35;;
40489;SDS011;26196;52.302;10.572;2023-07-24T15:42:57;3.27;;;1.23;;
40489;SDS011;26196;52.302;10.572;2023-07-24T15:46:57;5.53;;;1.70;;
40489;SDS011;26196;52.302;10.572;2023-07-24T15:50:58;2.13;;;1.50;;
40489;SDS011;26196;52.302;10.572;2023-07-24T15:54:58;3.28;;;1.20;;
40489;SDS011;26196;52.302;10.572;2023-07-24T15:58:59;3.35;;;1.35;;
40489;SDS011;26196;52.302;10.572;2023-07-24T16:03:00;8.38;;;2.50;;
40489;SDS011;26196;52.302;10.572;2023-07-24T16:07:00;11.68;;;3.67;;
40489;SDS011;26196;52.302;10.572;2023-07-24T16:11:01;10.70;;;4.07;;
40489;SDS011;26196;52.302;10.572;2023-07-24T16:15:02;9.82;;;3.33;;
40489;SDS011;26196;52.302;10.572;2023-07-24T16:19:19;7.70;;;3.15;;
40489;SDS011;26196;52.302;10.572;2023-07-24T16:23:20;9.88;;;2.47;;
40489;SDS011;26196;52.302;10.572;2023-07-24T16:27:21;9.05;;;2.45;;
40489;SDS011;26196;52.302;10.572;2023-07-24T16:31:21;6.75;;;3.38;;
40489;SDS011;26196;52.302;10.572;2023-07-24T16:35:21;6.57;;;2.40;;
40489;SDS011;26196;52.302;10.572;2023-07-24T16:39:22;10.93;;;2.30;;
40489;SDS011;26196;52.302;10.572;2023-07-24T16:43:23;6.57;;;2.80;;
40489;SDS011;26196;52.302;10.572;2023-07-24T16:47:23;6.85;;;2.40;;
40489;SDS011;26196;52.302;10.572;2023-07-24T16:51:24;7.30;;;2.47;;
40489;SDS011;26196;52.302;10.572;2023-07-24T16:55:24;6.80;;;2.17;;
40489;SDS011;26196;52.302;10.572;2023-07-24T16:59:24;4.07;;;1.70;;
40489;SDS011;26196;52.302;10.572;2023-07-24T17:03:26;2.80;;;1.90;;
40489;SDS011;26196;52.302;10.572;2023-07-24T17:07:27;3.33;;;1.40;;
40489;SDS011;26196;52.302;10.572;2023-07-24T17:11:27;2.22;;;1.50;;
40489;SDS011;26196;52.302;10.572;2023-07-24T17:15:28;3.05;;;1.63;;
40489;SDS011;26196;52.302;10.572;2023-07-24T17:19:28;4.90;;;1.90;;
40489;SDS011;26196;52.302;10.572;2023-07-24T17:23:28;6.70;;;1.93;;
40489;SDS011;26196;52.302;10.572;2023-07-24T17:27:29;8.13;;;2.35;;
40489;SDS011;26196;52.302;10.572;2023-07-24T17:31:30;3.97;;;2.47;;
40489;SDS011;26196;52.302;10.572;2023-07-24T17:35:34;4.93;;;2.70;;
40489;SDS011;26196;52.302;10.572;2023-07-24T17:39:35;4.85;;;2.47;;
40489;SDS011;26196;52.302;10.572;2023-07-24T17:43:35;7.10;;;2.42;;
40489;SDS011;26196;52.302;10.572;2023-07-24T17:47:36;3.05;;;2.00;;
40489;SDS011;26196;52.302;10.572;2023-07-24T17:51:36;3.55;;;2.10;;
40489;SDS011;26196;52.302;10.572;2023-07-24T17:55:36;7.40;;;3.00;;
40489;SDS011;26196;52.302;10.572;2023-07-24T17:59:37;5.35;;;2.50;;
40489;SDS011;26196;52.302;10.572;2023-07-24T18:03:38;7.03;;;2.72;;
40489;SDS011;26196;52.302;10.572;2023-07-24T18:07:38;7.28;;;2.50;;
40489;SDS011;26196;52.302;10.572;2023-07-24T18:11:39;4.53;;;2.28;;
40489;SDS011;26196;52.302;10.572;2023-07-24T18:15:39;5.70;;;2.47;;
40489;SDS011;26196;52.302;10.572;2023-07-24T18:19:40;3.03;;;1.90;;
40489;SDS011;26196;52.302;10.572;2023-07-24T18:23:40;3.90;;;2.87;;
40489;SDS011;26196;52.302;10.572;2023-07-24T18:27:40;2.85;;;1.85;;
40489;SDS011;26196;52.302;10.572;2023-07-24T18:31:41;3.28;;;2.08;;
40489;SDS011;26196;52.302;10.572;2023-07-24T18:35:42;3.75;;;2.13;;
40489;SDS011;26196;52.302;10.572;2023-07-24T18:39:42;6.70;;;2.03;;
40489;SDS011;26196;52.302;10.572;2023-07-24T18:43:43;4.77;;;2.10;;
40489;SDS011;26196;52.302;10.572;2023-07-24T18:47:43;2.53;;;1.75;;
40489;SDS011;26196;52.302;10.572;2023-07-24T18:51:44;3.85;;;1.63;;
40489;SDS011;26196;52.302;10.572;2023-07-24T18:55:44;4.55;;;1.92;;
40489;SDS011;26196;52.302;10.572;2023-07-24T18:59:44;3.97;;;1.50;;
40489;SDS011;26196;52.302;10.572;2023-07-24T19:03:45;2.78;;;1.80;;
40489;SDS011;26196;52.302;10.572;2023-07-24T19:07:45;2.80;;;1.75;;
40489;SDS011;26196;52.302;10.572;2023-07-24T19:11:45;3.42;;;1.40;;
40489;SDS011;26196;52.302;10.572;2023-07-24T19:15:46;2.95;;;1.50;;
40489;SDS011;26196;52.302;10.572;2023-07-24T19:19:46;7.43;;;1.70;;
40489;SDS011;26196;52.302;10.572;2023-07-24T19:23:47;5.77;;;1.50;;
40489;SDS011;26196;52.302;10.572;2023-07-24T19:27:47;3.23;;;1.50;;
40489;SDS011;26196;52.302;10.572;2023-07-24T19:31:47;10.85;;;2.03;;
40489;SDS011;26196;52.302;10.572;2023-07-24T19:35:49;5.30;;;1.83;;
40489;SDS011;26196;52.302;10.572;2023-07-24T19:39:49;8.87;;;1.63;;
40489;SDS011;26196;52.302;10.572;2023-07-24T19:43:50;3.07;;;1.73;;
40489;SDS011;26196;52.302;10.572;2023-07-24T19:47:50;5.70;;;1.52;;
40489;SDS011;26196;52.302;10.572;2023-07-24T19:51:50;5.20;;;2.30;;
40489;SDS011;26196;52.302;10.572;2023-07-24T19:55:51;10.80;;;2.67;;
40489;SDS011;26196;52.302;10.572;2023-07-24T19:59:53;12.43;;;2.00;;
40489;SDS011;26196;52.302;10.572;2023-07-24T20:03:53;11.15;;;2.10;;
40489;SDS011;26196;52.302;10.572;2023-07-24T20:07:53;7.93;;;2.20;;
40489;SDS011;26196;52.302;10.572;2023-07-24T20:11:54;16.10;;;1.80;;
40489;SDS011;26196;52.302;10.572;2023-07-24T20:15:54;8.73;;;2.63;;
40489;SDS011;26196;52.302;10.572;2023-07-24T20:19:56;8.88;;;1.45;;
40489;SDS011;26196;52.302;10.572;2023-07-24T20:24:06;4.73;;;1.90;;
40489;SDS011;26196;52.302;10.572;2023-07-24T20:28:10;10.60;;;1.75;;
40489;SDS011;26196;52.302;10.572;2023-07-24T20:32:11;5.22;;;1.35;;
40489;SDS011;26196;52.302;10.572;2023-07-24T20:36:12;5.13;;;1.60;;
40489;SDS011;26196;52.302;10.572;2023-07-24T20:40:12;4.00;;;1.50;;
40489;SDS011;26196;52.302;10.572;2023-07-24T20:44:13;5.03;;;1.60;;
40489;SDS011;26196;52.302;10.572;2023-07-24T20:48:13;11.57;;;2.40;;
40489;SDS011;26196;52.302;10.572;2023-07-24T20:52:13;4.45;;;1.60;;
40489;SDS011;26196;52.302;10.572;2023-07-24T20:56:14;4.55;;;1.90;;
40489;SDS011;26196;52.302;10.572;2023-07-24T21:00:14;2.65;;;1.33;;
40489;SDS011;26196;52.302;10.572;2023-07-24T21:04:15;3.53;;;1.60;;
40489;SDS011;26196;52.302;10.572;2023-07-24T21:08:15;9.30;;;2.00;;
40489;SDS011;26196;52.302;10.572;2023-07-24T21:12:16;3.55;;;1.30;;
40489;SDS011;26196;52.302;10.572;2023-07-24T21:16:16;3.83;;;1.50;;
40489;SDS011;26196;52.302;10.572;2023-07-24T21:20:16;4.68;;;1.70;;
40489;SDS011;26196;52.302;10.572;2023-07-24T21:24:17;2.63;;;1.75;;
40489;SDS011;26196;52.302;10.572;2023-07-24T21:28:17;2.97;;;1.48;;
40489;SDS011;26196;52.302;10.572;2023-07-24T21:32:18;3.80;;;1.48;;
40489;SDS011;26196;52.302;10.572;2023-07-24T21:36:18;4.45;;;1.40;;
40489;SDS011;26196;52.302;10.572;2023-07-24T21:40:19;1.98;;;1.50;;
40489;SDS011;26196;52.302;10.572;2023-07-24T21:44:19;5.20;;;1.27;;
40489;SDS011;26196;52.302;10.572;2023-07-24T21:48:19;3.03;;;1.67;;
40489;SDS011;26196;52.302;10.572;2023-07-24T21:52:20;3.25;;;1.42;;
40489;SDS011;26196;52.302;10.572;2023-07-24T21:56:20;5.00;;;2.67;;
40489;SDS011;26196;52.302;10.572;2023-07-24T22:00:21;2.65;;;1.70;;
40489;SDS011;26196;52.302;10.572;2023-07-24T22:04:24;3.50;;;2.88;;
40489;SDS011;26196;52.302;10.572;2023-07-24T22:08:24;9.10;;;2.00;;
40489;SDS011;26196;52.302;10.572;2023-07-24T22:12:24;5.57;;;2.13;;
40489;SDS011;26196;52.302;10.572;2023-07-24T22:16:25;7.57;;;2.13;;
40489;SDS011;26196;52.302;10.572;2023-07-24T22:20:25;3.58;;;1.77;;
40489;SDS011;26196;52.302;10.572;2023-07-24T22:24:27;5.38;;;1.70;;
40489;SDS011;26196;52.302;10.572;2023-07-24T22:28:28;2.78;;;1.85;;
40489;SDS011;26196;52.302;10.572;2023-07-24T22:32:28;3.13;;;1.53;;
40489;SDS011;26196;52.302;10.572;2023-07-24T22:36:29;4.67;;;1.77;;
40489;SDS011;26196;52.302;10.572;2023-07-24T22:40:30;5.60;;;2.13;;
40489;SDS011;26196;52.302;10.572;2023-07-24T22:44:30;2.95;;;1.30;;
40489;SDS011;26196;52.302;10.572;2023-07-24T22:48:31;3.80;;;1.77;;
40489;SDS011;26196;52.302;10.572;2023-07-24T22:52:31;2.67;;;1.90;;
40489;SDS011;26196;52.302;10.572;2023-07-24T22:56:31;2.90;;;1.43;;
40489;SDS011;26196;52.302;10.572;2023-07-24T23:00:32;3.70;;;1.85;;
40489;SDS011;26196;52.302;10.572;2023-07-24T23:04:32;2.60;;;2.10;;
40489;SDS011;26196;52.302;10.572;2023-07-24T23:08:32;3.13;;;1.60;;
40489;SDS011;26196;52.302;10.572;2023-07-24T23:12:33;3.93;;;1.77;;
40489;SDS011;26196;52.302;10.572;2023-07-24T23:16:33;2.57;;;1.60;;
40489;SDS011;26196;52.302;10.572;2023-07-24T23:20:34;3.63;;;1.70;;
40489;SDS011;26196;52.302;10.572;2023-07-24T23:24:34;4.28;;;1.70;;
40489;SDS011;26196;52.302;10.572;2023-07-24T23:28:34;3.27;;;1.97;;
40489;SDS011;26196;52.302;10.572;2023-07-24T23:32:35;1.95;;;1.70;;
40489;SDS011;26196;52.302;10.572;2023-07-24T23:36:35;2.10;;;1.50;;
40489;SDS011;26196;52.302;10.572;2023-07-24T23:40:35;5.40;;;1.83;;
40489;SDS011;26196;52.302;10.572;2023-07-24T23:44:35;7.37;;;2.10;;
40489;SDS011;26196;52.302;10.572;2023-07-24T23:48:36;4.20;;;1.80;;
40489;SDS011;26196;52.302;10.572;2023-07-24T23:52:36;7.72;;;1.77;;
40489;SDS011;26196;52.302;10.572;2023-07-24T23:56:36;3.20;;;1.90;;
